sensor_id;sensor_type;location;lat;lon;timestamp;P1;durP1;ratioP1;P2;durP2;ratioP2
24715;SDS011;12822;50.124;8.678;2022-12-07T00:01:44;29.48;;;17.02;;
24715;SDS011;12822;50.124;8.678;2022-12-07T00:04:11;32.38;;;17.60;;
24715;SDS011;12822;50.124;8.678;2022-12-07T00:06:38;27.90;;;16.50;;
24715;SDS011;12822;50.124;8.678;2022-12-07T00:09:05;26.13;;;16.42;;
24715;SDS011;12822;50.124;8.678;2022-12-07T00:11:31;29.25;;;16.55;;
24715;SDS011;12822;50.124;8.678;2022-12-07T00:13:58;25.02;;;16.20;;
24715;SDS011;12822;50.124;8.678;2022-12-07T00:16:26;26.00;;;15.63;;
24715;SDS011;12822;50.124;8.678;2022-12-07T00:18:52;27.67;;;16.67;;
24715;SDS011;12822;50.124;8.678;2022-12-07T00:21:19;24.38;;;15.68;;
24715;SDS011;12822;50.124;8.678;2022-12-07T00:23:46;29.45;;;16.23;;
24715;SDS011;12822;50.124;8.678;2022-12-07T00:26:16;25.00;;;15.63;;
24715;SDS011;12822;50.124;8.678;2022-12-07T00:28:49;28.38;;;15.15;;
24715;SDS011;12822;50.124;8.678;2022-12-07T00:31:17;27.83;;;14.95;;
24715;SDS011;12822;50.124;8.678;2022-12-07T00:33:43;28.17;;;15.75;;
24715;SDS011;12822;50.124;8.678;2022-12-07T00:36:10;27.85;;;15.55;;
24715;SDS011;12822;50.124;8.678;2022-12-07T00:38:37;25.30;;;15.90;;
24715;SDS011;12822;50.124;8.678;2022-12-07T00:41:05;25.23;;;15.52;;
24715;SDS011;12822;50.124;8.678;2022-12-07T00:43:31;25.08;;;15.50;;
24715;SDS011;12822;50.124;8.678;2022-12-07T00:45:57;25.27;;;15.45;;
24715;SDS011;12822;50.124;8.678;2022-12-07T00:48:23;24.00;;;15.13;;
24715;SDS011;12822;50.124;8.678;2022-12-07T00:50:50;25.35;;;14.48;;
24715;SDS011;12822;50.124;8.678;2022-12-07T00:53:16;26.40;;;15.55;;
24715;SDS011;12822;50.124;8.678;2022-12-07T00:55:42;26.50;;;15.77;;
24715;SDS011;12822;50.124;8.678;2022-12-07T00:58:08;27.10;;;15.23;;
24715;SDS011;12822;50.124;8.678;2022-12-07T01:00:38;24.35;;;15.32;;
24715;SDS011;12822;50.124;8.678;2022-12-07T01:03:05;25.67;;;15.50;;
24715;SDS011;12822;50.124;8.678;2022-12-07T01:05:31;26.77;;;15.40;;
24715;SDS011;12822;50.124;8.678;2022-12-07T01:07:57;26.45;;;15.52;;
24715;SDS011;12822;50.124;8.678;2022-12-07T01:10:23;27.40;;;16.30;;
24715;SDS011;12822;50.124;8.678;2022-12-07T01:12:49;23.15;;;14.10;;
24715;SDS011;12822;50.124;8.678;2022-12-07T01:15:15;27.33;;;16.05;;
24715;SDS011;12822;50.124;8.678;2022-12-07T01:17:41;28.20;;;16.13;;
24715;SDS011;12822;50.124;8.678;2022-12-07T01:20:07;27.85;;;16.05;;
24715;SDS011;12822;50.124;8.678;2022-12-07T01:22:37;32.58;;;16.75;;
24715;SDS011;12822;50.124;8.678;2022-12-07T01:25:04;30.60;;;16.77;;
24715;SDS011;12822;50.124;8.678;2022-12-07T01:27:30;28.13;;;16.50;;
24715;SDS011;12822;50.124;8.678;2022-12-07T01:29:56;30.88;;;17.23;;
24715;SDS011;12822;50.124;8.678;2022-12-07T01:32:22;32.78;;;16.30;;
24715;SDS011;12822;50.124;8.678;2022-12-07T01:34:48;29.85;;;16.17;;
24715;SDS011;12822;50.124;8.678;2022-12-07T01:37:14;32.00;;;16.60;;
24715;SDS011;12822;50.124;8.678;2022-12-07T01:39:39;29.08;;;16.17;;
24715;SDS011;12822;50.124;8.678;2022-12-07T01:42:09;27.80;;;15.35;;
24715;SDS011;12822;50.124;8.678;2022-12-07T01:47:19;26.33;;;15.18;;
24715;SDS011;12822;50.124;8.678;2022-12-07T01:49:46;27.23;;;14.75;;
24715;SDS011;12822;50.124;8.678;2022-12-07T01:54:43;24.60;;;14.15;;
24715;SDS011;12822;50.124;8.678;2022-12-07T01:57:09;21.02;;;11.90;;
24715;SDS011;12822;50.124;8.678;2022-12-07T01:59:37;23.58;;;12.77;;
24715;SDS011;12822;50.124;8.678;2022-12-07T02:02:04;24.85;;;13.40;;
24715;SDS011;12822;50.124;8.678;2022-12-07T02:04:33;23.13;;;13.50;;
24715;SDS011;12822;50.124;8.678;2022-12-07T02:06:59;23.63;;;13.90;;
24715;SDS011;12822;50.124;8.678;2022-12-07T02:09:25;24.33;;;13.02;;
24715;SDS011;12822;50.124;8.678;2022-12-07T02:11:51;28.60;;;13.85;;
24715;SDS011;12822;50.124;8.678;2022-12-07T02:14:17;24.83;;;12.88;;
24715;SDS011;12822;50.124;8.678;2022-12-07T02:21:45;24.73;;;12.00;;
24715;SDS011;12822;50.124;8.678;2022-12-07T02:29:22;24.55;;;12.52;;
24715;SDS011;12822;50.124;8.678;2022-12-07T02:32:10;23.63;;;12.20;;
24715;SDS011;12822;50.124;8.678;2022-12-07T02:37:14;25.60;;;11.45;;
24715;SDS011;12822;50.124;8.678;2022-12-07T02:39:44;22.40;;;12.38;;
24715;SDS011;12822;50.124;8.678;2022-12-07T02:42:15;25.85;;;11.57;;
24715;SDS011;12822;50.124;8.678;2022-12-07T02:44:43;24.58;;;11.35;;
24715;SDS011;12822;50.124;8.678;2022-12-07T02:47:10;22.25;;;11.57;;
24715;SDS011;12822;50.124;8.678;2022-12-07T02:49:38;21.33;;;11.45;;
24715;SDS011;12822;50.124;8.678;2022-12-07T02:52:05;19.52;;;11.77;;
24715;SDS011;12822;50.124;8.678;2022-12-07T02:54:31;22.23;;;11.63;;
24715;SDS011;12822;50.124;8.678;2022-12-07T03:04:39;21.30;;;11.63;;
24715;SDS011;12822;50.124;8.678;2022-12-07T03:09:53;20.08;;;10.93;;
24715;SDS011;12822;50.124;8.678;2022-12-07T03:12:57;19.80;;;10.32;;
24715;SDS011;12822;50.124;8.678;2022-12-07T03:15:20;23.02;;;10.25;;
24715;SDS011;12822;50.124;8.678;2022-12-07T03:17:47;22.15;;;10.98;;
24715;SDS011;12822;50.124;8.678;2022-12-07T03:20:15;19.80;;;10.75;;
24715;SDS011;12822;50.124;8.678;2022-12-07T03:22:43;19.42;;;10.55;;
24715;SDS011;12822;50.124;8.678;2022-12-07T03:25:10;18.58;;;10.63;;
24715;SDS011;12822;50.124;8.678;2022-12-07T03:30:07;20.98;;;10.27;;
24715;SDS011;12822;50.124;8.678;2022-12-07T03:32:39;22.90;;;11.48;;
24715;SDS011;12822;50.124;8.678;2022-12-07T03:37:33;18.83;;;10.50;;
24715;SDS011;12822;50.124;8.678;2022-12-07T03:42:44;17.65;;;10.85;;
24715;SDS011;12822;50.124;8.678;2022-12-07T03:45:11;20.95;;;10.75;;
24715;SDS011;12822;50.124;8.678;2022-12-07T03:47:47;17.73;;;9.88;;
24715;SDS011;12822;50.124;8.678;2022-12-07T03:50:16;18.88;;;10.43;;
24715;SDS011;12822;50.124;8.678;2022-12-07T03:52:46;19.35;;;10.30;;
24715;SDS011;12822;50.124;8.678;2022-12-07T03:57:42;18.52;;;10.48;;
24715;SDS011;12822;50.124;8.678;2022-12-07T04:00:09;16.67;;;9.98;;
24715;SDS011;12822;50.124;8.678;2022-12-07T04:02:35;18.33;;;9.40;;
24715;SDS011;12822;50.124;8.678;2022-12-07T04:05:02;17.30;;;9.68;;
24715;SDS011;12822;50.124;8.678;2022-12-07T04:07:28;18.13;;;9.50;;
24715;SDS011;12822;50.124;8.678;2022-12-07T04:09:54;14.93;;;9.02;;
24715;SDS011;12822;50.124;8.678;2022-12-07T04:12:21;17.90;;;9.70;;
24715;SDS011;12822;50.124;8.678;2022-12-07T04:14:47;15.35;;;9.07;;
24715;SDS011;12822;50.124;8.678;2022-12-07T04:17:13;15.50;;;9.68;;
24715;SDS011;12822;50.124;8.678;2022-12-07T04:19:39;18.83;;;10.13;;
24715;SDS011;12822;50.124;8.678;2022-12-07T04:22:05;16.48;;;9.60;;
24715;SDS011;12822;50.124;8.678;2022-12-07T04:24:31;16.20;;;9.18;;
24715;SDS011;12822;50.124;8.678;2022-12-07T04:26:57;17.27;;;9.07;;
24715;SDS011;12822;50.124;8.678;2022-12-07T04:29:23;16.20;;;10.05;;
24715;SDS011;12822;50.124;8.678;2022-12-07T04:31:50;16.25;;;9.75;;
24715;SDS011;12822;50.124;8.678;2022-12-07T04:34:16;18.30;;;9.88;;
24715;SDS011;12822;50.124;8.678;2022-12-07T04:36:42;16.08;;;9.13;;
24715;SDS011;12822;50.124;8.678;2022-12-07T04:39:13;18.75;;;9.43;;
24715;SDS011;12822;50.124;8.678;2022-12-07T04:41:39;17.10;;;9.07;;
24715;SDS011;12822;50.124;8.678;2022-12-07T04:44:05;15.13;;;9.68;;
24715;SDS011;12822;50.124;8.678;2022-12-07T04:46:32;17.77;;;9.60;;
24715;SDS011;12822;50.124;8.678;2022-12-07T04:48:58;17.10;;;9.60;;
24715;SDS011;12822;50.124;8.678;2022-12-07T04:51:26;18.63;;;9.73;;
24715;SDS011;12822;50.124;8.678;2022-12-07T04:53:52;16.70;;;9.63;;
24715;SDS011;12822;50.124;8.678;2022-12-07T04:56:18;16.50;;;9.13;;
24715;SDS011;12822;50.124;8.678;2022-12-07T04:58:45;15.32;;;9.00;;
24715;SDS011;12822;50.124;8.678;2022-12-07T05:01:12;17.35;;;8.93;;
24715;SDS011;12822;50.124;8.678;2022-12-07T05:03:38;16.30;;;9.55;;
24715;SDS011;12822;50.124;8.678;2022-12-07T05:06:04;18.73;;;9.15;;
24715;SDS011;12822;50.124;8.678;2022-12-07T05:08:31;17.00;;;9.88;;
24715;SDS011;12822;50.124;8.678;2022-12-07T05:10:57;19.17;;;9.43;;
24715;SDS011;12822;50.124;8.678;2022-12-07T05:13:23;15.02;;;9.13;;
24715;SDS011;12822;50.124;8.678;2022-12-07T05:15:49;16.25;;;9.13;;
24715;SDS011;12822;50.124;8.678;2022-12-07T05:18:15;17.20;;;9.40;;
24715;SDS011;12822;50.124;8.678;2022-12-07T05:20:41;17.17;;;9.75;;
24715;SDS011;12822;50.124;8.678;2022-12-07T05:23:08;19.70;;;9.60;;
24715;SDS011;12822;50.124;8.678;2022-12-07T05:25:34;16.77;;;9.32;;
24715;SDS011;12822;50.124;8.678;2022-12-07T05:28:01;22.02;;;10.15;;
24715;SDS011;12822;50.124;8.678;2022-12-07T05:30:27;17.63;;;9.95;;
24715;SDS011;12822;50.124;8.678;2022-12-07T05:32:53;17.90;;;10.05;;
24715;SDS011;12822;50.124;8.678;2022-12-07T05:35:19;18.70;;;10.25;;
24715;SDS011;12822;50.124;8.678;2022-12-07T05:37:45;20.02;;;10.75;;
24715;SDS011;12822;50.124;8.678;2022-12-07T05:40:11;16.38;;;9.55;;
24715;SDS011;12822;50.124;8.678;2022-12-07T05:42:38;17.13;;;9.82;;
24715;SDS011;12822;50.124;8.678;2022-12-07T05:45:04;22.58;;;10.45;;
24715;SDS011;12822;50.124;8.678;2022-12-07T05:47:30;17.15;;;9.95;;
24715;SDS011;12822;50.124;8.678;2022-12-07T05:49:56;19.02;;;11.10;;
24715;SDS011;12822;50.124;8.678;2022-12-07T05:52:22;18.23;;;10.50;;
24715;SDS011;12822;50.124;8.678;2022-12-07T05:54:48;20.27;;;10.65;;
24715;SDS011;12822;50.124;8.678;2022-12-07T05:57:14;20.33;;;10.30;;
24715;SDS011;12822;50.124;8.678;2022-12-07T05:59:40;20.23;;;10.13;;
24715;SDS011;12822;50.124;8.678;2022-12-07T06:02:08;23.05;;;11.07;;
24715;SDS011;12822;50.124;8.678;2022-12-07T06:04:36;17.10;;;10.07;;
24715;SDS011;12822;50.124;8.678;2022-12-07T06:07:02;22.33;;;11.57;;
24715;SDS011;12822;50.124;8.678;2022-12-07T06:09:28;19.42;;;10.98;;
24715;SDS011;12822;50.124;8.678;2022-12-07T06:11:55;20.95;;;11.27;;
24715;SDS011;12822;50.124;8.678;2022-12-07T06:14:40;18.75;;;11.25;;
24715;SDS011;12822;50.124;8.678;2022-12-07T06:17:06;19.80;;;11.20;;
24715;SDS011;12822;50.124;8.678;2022-12-07T06:19:32;20.02;;;10.52;;
24715;SDS011;12822;50.124;8.678;2022-12-07T06:21:59;21.08;;;11.10;;
24715;SDS011;12822;50.124;8.678;2022-12-07T06:24:25;16.90;;;10.18;;
24715;SDS011;12822;50.124;8.678;2022-12-07T06:26:51;24.50;;;11.57;;
24715;SDS011;12822;50.124;8.678;2022-12-07T06:29:17;19.60;;;11.93;;
24715;SDS011;12822;50.124;8.678;2022-12-07T06:31:44;21.15;;;11.52;;
24715;SDS011;12822;50.124;8.678;2022-12-07T06:34:11;22.20;;;11.40;;
24715;SDS011;12822;50.124;8.678;2022-12-07T06:36:37;21.90;;;12.07;;
24715;SDS011;12822;50.124;8.678;2022-12-07T06:39:03;22.80;;;12.30;;
24715;SDS011;12822;50.124;8.678;2022-12-07T06:41:30;18.80;;;11.45;;
24715;SDS011;12822;50.124;8.678;2022-12-07T06:43:56;21.48;;;11.57;;
24715;SDS011;12822;50.124;8.678;2022-12-07T06:46:22;22.65;;;12.70;;
24715;SDS011;12822;50.124;8.678;2022-12-07T06:48:48;21.02;;;12.52;;
24715;SDS011;12822;50.124;8.678;2022-12-07T06:51:14;20.65;;;12.30;;
24715;SDS011;12822;50.124;8.678;2022-12-07T06:53:40;21.83;;;11.25;;
24715;SDS011;12822;50.124;8.678;2022-12-07T06:56:06;20.42;;;12.57;;
24715;SDS011;12822;50.124;8.678;2022-12-07T06:58:32;24.05;;;12.15;;
24715;SDS011;12822;50.124;8.678;2022-12-07T07:00:58;23.05;;;12.02;;
24715;SDS011;12822;50.124;8.678;2022-12-07T07:03:24;20.00;;;11.68;;
24715;SDS011;12822;50.124;8.678;2022-12-07T07:05:51;20.63;;;12.10;;
24715;SDS011;12822;50.124;8.678;2022-12-07T07:08:17;23.65;;;12.00;;
24715;SDS011;12822;50.124;8.678;2022-12-07T07:10:43;20.75;;;12.50;;
24715;SDS011;12822;50.124;8.678;2022-12-07T07:13:09;22.48;;;12.35;;
24715;SDS011;12822;50.124;8.678;2022-12-07T07:15:37;24.88;;;12.98;;
24715;SDS011;12822;50.124;8.678;2022-12-07T07:18:03;22.33;;;12.90;;
24715;SDS011;12822;50.124;8.678;2022-12-07T07:20:29;24.08;;;13.35;;
24715;SDS011;12822;50.124;8.678;2022-12-07T07:22:55;28.25;;;13.13;;
24715;SDS011;12822;50.124;8.678;2022-12-07T07:25:22;24.63;;;13.73;;
24715;SDS011;12822;50.124;8.678;2022-12-07T07:27:48;23.50;;;13.10;;
24715;SDS011;12822;50.124;8.678;2022-12-07T07:30:14;24.40;;;12.75;;
24715;SDS011;12822;50.124;8.678;2022-12-07T07:32:40;26.25;;;14.68;;
24715;SDS011;12822;50.124;8.678;2022-12-07T07:35:06;23.20;;;13.65;;
24715;SDS011;12822;50.124;8.678;2022-12-07T07:37:32;26.73;;;13.07;;
24715;SDS011;12822;50.124;8.678;2022-12-07T07:39:58;27.08;;;13.95;;
24715;SDS011;12822;50.124;8.678;2022-12-07T07:42:24;22.95;;;13.07;;
24715;SDS011;12822;50.124;8.678;2022-12-07T07:44:50;20.95;;;12.27;;
24715;SDS011;12822;50.124;8.678;2022-12-07T07:47:16;22.45;;;12.57;;
24715;SDS011;12822;50.124;8.678;2022-12-07T07:49:51;24.15;;;12.55;;
24715;SDS011;12822;50.124;8.678;2022-12-07T07:52:20;22.52;;;12.27;;
24715;SDS011;12822;50.124;8.678;2022-12-07T07:54:46;21.80;;;12.65;;
24715;SDS011;12822;50.124;8.678;2022-12-07T07:57:12;23.55;;;12.02;;
24715;SDS011;12822;50.124;8.678;2022-12-07T07:59:38;24.05;;;12.23;;
24715;SDS011;12822;50.124;8.678;2022-12-07T08:02:04;17.45;;;10.27;;
24715;SDS011;12822;50.124;8.678;2022-12-07T08:04:33;22.13;;;12.18;;
24715;SDS011;12822;50.124;8.678;2022-12-07T08:06:59;20.63;;;11.75;;
24715;SDS011;12822;50.124;8.678;2022-12-07T08:09:25;21.83;;;12.98;;
24715;SDS011;12822;50.124;8.678;2022-12-07T08:11:51;21.33;;;12.10;;
24715;SDS011;12822;50.124;8.678;2022-12-07T08:14:17;21.13;;;11.55;;
24715;SDS011;12822;50.124;8.678;2022-12-07T08:16:43;21.25;;;12.30;;
24715;SDS011;12822;50.124;8.678;2022-12-07T08:19:09;21.15;;;11.40;;
24715;SDS011;12822;50.124;8.678;2022-12-07T08:21:39;19.02;;;10.18;;
24715;SDS011;12822;50.124;8.678;2022-12-07T08:24:05;18.20;;;10.35;;
24715;SDS011;12822;50.124;8.678;2022-12-07T08:26:31;14.65;;;9.40;;
24715;SDS011;12822;50.124;8.678;2022-12-07T08:28:59;14.23;;;8.95;;
24715;SDS011;12822;50.124;8.678;2022-12-07T08:31:27;15.57;;;8.88;;
24715;SDS011;12822;50.124;8.678;2022-12-07T08:33:54;13.93;;;8.10;;
24715;SDS011;12822;50.124;8.678;2022-12-07T08:36:20;13.32;;;7.82;;
24715;SDS011;12822;50.124;8.678;2022-12-07T08:38:47;11.05;;;7.65;;
24715;SDS011;12822;50.124;8.678;2022-12-07T08:41:13;13.50;;;7.30;;
24715;SDS011;12822;50.124;8.678;2022-12-07T08:43:39;13.45;;;7.70;;
24715;SDS011;12822;50.124;8.678;2022-12-07T08:48:35;13.95;;;8.07;;
24715;SDS011;12822;50.124;8.678;2022-12-07T08:51:05;13.55;;;7.72;;
24715;SDS011;12822;50.124;8.678;2022-12-07T08:53:32;11.98;;;7.78;;
24715;SDS011;12822;50.124;8.678;2022-12-07T08:55:59;12.50;;;7.60;;
24715;SDS011;12822;50.124;8.678;2022-12-07T08:58:25;14.20;;;8.35;;
24715;SDS011;12822;50.124;8.678;2022-12-07T09:00:52;11.85;;;7.63;;
24715;SDS011;12822;50.124;8.678;2022-12-07T09:03:18;12.38;;;7.70;;
24715;SDS011;12822;50.124;8.678;2022-12-07T09:05:44;14.05;;;8.13;;
24715;SDS011;12822;50.124;8.678;2022-12-07T09:08:10;12.50;;;8.02;;
24715;SDS011;12822;50.124;8.678;2022-12-07T09:10:36;12.68;;;7.75;;
24715;SDS011;12822;50.124;8.678;2022-12-07T09:13:02;14.70;;;9.05;;
24715;SDS011;12822;50.124;8.678;2022-12-07T09:15:28;13.05;;;8.00;;
24715;SDS011;12822;50.124;8.678;2022-12-07T09:17:55;15.00;;;9.32;;
24715;SDS011;12822;50.124;8.678;2022-12-07T09:20:21;17.33;;;9.07;;
24715;SDS011;12822;50.124;8.678;2022-12-07T09:22:47;13.93;;;8.13;;
24715;SDS011;12822;50.124;8.678;2022-12-07T09:25:13;15.18;;;9.20;;
24715;SDS011;12822;50.124;8.678;2022-12-07T09:27:39;16.63;;;8.85;;
24715;SDS011;12822;50.124;8.678;2022-12-07T09:30:05;12.40;;;8.38;;
24715;SDS011;12822;50.124;8.678;2022-12-07T09:32:35;23.98;;;9.02;;
24715;SDS011;12822;50.124;8.678;2022-12-07T09:35:01;17.08;;;8.57;;
24715;SDS011;12822;50.124;8.678;2022-12-07T09:37:27;14.82;;;8.55;;
24715;SDS011;12822;50.124;8.678;2022-12-07T09:39:53;15.60;;;9.18;;
24715;SDS011;12822;50.124;8.678;2022-12-07T09:44:51;16.55;;;8.32;;
24715;SDS011;12822;50.124;8.678;2022-12-07T09:47:17;16.48;;;9.43;;
24715;SDS011;12822;50.124;8.678;2022-12-07T09:49:49;15.25;;;8.68;;
24715;SDS011;12822;50.124;8.678;2022-12-07T09:52:34;18.25;;;8.07;;
24715;SDS011;12822;50.124;8.678;2022-12-07T09:55:01;15.60;;;8.43;;
24715;SDS011;12822;50.124;8.678;2022-12-07T09:57:31;12.55;;;7.47;;
24715;SDS011;12822;50.124;8.678;2022-12-07T10:00:00;14.98;;;8.95;;
24715;SDS011;12822;50.124;8.678;2022-12-07T10:02:40;12.15;;;7.35;;
24715;SDS011;12822;50.124;8.678;2022-12-07T10:05:18;12.27;;;7.68;;
24715;SDS011;12822;50.124;8.678;2022-12-07T10:07:45;12.57;;;7.32;;
24715;SDS011;12822;50.124;8.678;2022-12-07T10:10:20;10.57;;;6.82;;
24715;SDS011;12822;50.124;8.678;2022-12-07T10:13:00;15.98;;;6.60;;
24715;SDS011;12822;50.124;8.678;2022-12-07T10:15:42;16.50;;;7.25;;
24715;SDS011;12822;50.124;8.678;2022-12-07T10:18:54;15.80;;;6.80;;
24715;SDS011;12822;50.124;8.678;2022-12-07T10:21:05;23.45;;;6.93;;
24715;SDS011;12822;50.124;8.678;2022-12-07T10:23:33;11.85;;;5.65;;
24715;SDS011;12822;50.124;8.678;2022-12-07T10:25:59;9.93;;;5.65;;
24715;SDS011;12822;50.124;8.678;2022-12-07T10:28:30;10.00;;;5.88;;
24715;SDS011;12822;50.124;8.678;2022-12-07T10:31:04;12.57;;;5.50;;
24715;SDS011;12822;50.124;8.678;2022-12-07T10:38:53;6.65;;;2.97;;
24715;SDS011;12822;50.124;8.678;2022-12-07T10:41:19;6.88;;;3.00;;
24715;SDS011;12822;50.124;8.678;2022-12-07T10:43:46;11.15;;;3.22;;
24715;SDS011;12822;50.124;8.678;2022-12-07T10:49:08;8.10;;;2.80;;
24715;SDS011;12822;50.124;8.678;2022-12-07T10:51:43;7.13;;;3.22;;
24715;SDS011;12822;50.124;8.678;2022-12-07T10:54:16;9.15;;;2.90;;
24715;SDS011;12822;50.124;8.678;2022-12-07T10:57:05;9.50;;;3.50;;
24715;SDS011;12822;50.124;8.678;2022-12-07T10:59:40;6.07;;;2.50;;
24715;SDS011;12822;50.124;8.678;2022-12-07T11:02:24;6.85;;;2.85;;
24715;SDS011;12822;50.124;8.678;2022-12-07T11:04:56;7.57;;;2.70;;
24715;SDS011;12822;50.124;8.678;2022-12-07T11:07:29;9.05;;;2.85;;
24715;SDS011;12822;50.124;8.678;2022-12-07T11:10:02;6.80;;;2.83;;
24715;SDS011;12822;50.124;8.678;2022-12-07T11:15:17;7.05;;;2.67;;
24715;SDS011;12822;50.124;8.678;2022-12-07T11:23:08;7.28;;;3.03;;
24715;SDS011;12822;50.124;8.678;2022-12-07T11:25:44;5.93;;;2.58;;
24715;SDS011;12822;50.124;8.678;2022-12-07T11:28:20;4.60;;;2.75;;
24715;SDS011;12822;50.124;8.678;2022-12-07T11:30:52;7.25;;;3.10;;
24715;SDS011;12822;50.124;8.678;2022-12-07T11:36:16;8.88;;;3.20;;
24715;SDS011;12822;50.124;8.678;2022-12-07T11:38:45;8.75;;;3.17;;
24715;SDS011;12822;50.124;8.678;2022-12-07T11:41:13;10.88;;;3.50;;
24715;SDS011;12822;50.124;8.678;2022-12-07T11:43:50;9.35;;;3.08;;
24715;SDS011;12822;50.124;8.678;2022-12-07T11:46:18;8.20;;;2.92;;
24715;SDS011;12822;50.124;8.678;2022-12-07T11:48:57;6.05;;;2.88;;
24715;SDS011;12822;50.124;8.678;2022-12-07T11:51:24;7.30;;;3.33;;
24715;SDS011;12822;50.124;8.678;2022-12-07T11:53:52;4.82;;;2.60;;
24715;SDS011;12822;50.124;8.678;2022-12-07T11:56:20;4.88;;;2.80;;
24715;SDS011;12822;50.124;8.678;2022-12-07T12:04:02;9.07;;;3.13;;
24715;SDS011;12822;50.124;8.678;2022-12-07T12:06:32;5.22;;;2.67;;
24715;SDS011;12822;50.124;8.678;2022-12-07T12:19:19;6.88;;;2.45;;
24715;SDS011;12822;50.124;8.678;2022-12-07T12:21:48;5.65;;;2.50;;
24715;SDS011;12822;50.124;8.678;2022-12-07T12:24:20;4.65;;;2.10;;
24715;SDS011;12822;50.124;8.678;2022-12-07T12:26:49;11.23;;;2.53;;
24715;SDS011;12822;50.124;8.678;2022-12-07T12:29:21;5.00;;;1.80;;
24715;SDS011;12822;50.124;8.678;2022-12-07T12:32:04;5.90;;;2.25;;
24715;SDS011;12822;50.124;8.678;2022-12-07T12:37:00;10.77;;;2.88;;
24715;SDS011;12822;50.124;8.678;2022-12-07T12:39:26;5.82;;;2.75;;
24715;SDS011;12822;50.124;8.678;2022-12-07T12:41:53;4.80;;;1.85;;
24715;SDS011;12822;50.124;8.678;2022-12-07T12:51:53;7.97;;;1.60;;
24715;SDS011;12822;50.124;8.678;2022-12-07T13:02:46;8.13;;;2.95;;
24715;SDS011;12822;50.124;8.678;2022-12-07T13:10:03;4.88;;;2.20;;
24715;SDS011;12822;50.124;8.678;2022-12-07T13:12:29;7.88;;;1.60;;
24715;SDS011;12822;50.124;8.678;2022-12-07T13:14:56;7.97;;;2.00;;
24715;SDS011;12822;50.124;8.678;2022-12-07T13:20:07;2.67;;;1.20;;
24715;SDS011;12822;50.124;8.678;2022-12-07T13:28:09;2.28;;;1.17;;
24715;SDS011;12822;50.124;8.678;2022-12-07T13:30:33;4.63;;;1.83;;
24715;SDS011;12822;50.124;8.678;2022-12-07T13:33:08;6.93;;;1.90;;
24715;SDS011;12822;50.124;8.678;2022-12-07T13:35:35;4.93;;;1.90;;
24715;SDS011;12822;50.124;8.678;2022-12-07T13:38:04;6.82;;;2.00;;
24715;SDS011;12822;50.124;8.678;2022-12-07T13:40:31;6.07;;;1.60;;
24715;SDS011;12822;50.124;8.678;2022-12-07T13:42:58;3.05;;;1.23;;
24715;SDS011;12822;50.124;8.678;2022-12-07T13:45:28;2.53;;;0.90;;
24715;SDS011;12822;50.124;8.678;2022-12-07T13:48:35;2.72;;;1.17;;
24715;SDS011;12822;50.124;8.678;2022-12-07T13:51:00;3.58;;;1.20;;
24715;SDS011;12822;50.124;8.678;2022-12-07T13:53:26;3.88;;;1.52;;
24715;SDS011;12822;50.124;8.678;2022-12-07T13:55:55;4.57;;;1.27;;
24715;SDS011;12822;50.124;8.678;2022-12-07T13:58:21;2.83;;;1.48;;
24715;SDS011;12822;50.124;8.678;2022-12-07T14:00:48;3.20;;;1.05;;
24715;SDS011;12822;50.124;8.678;2022-12-07T14:05:41;3.00;;;1.35;;
24715;SDS011;12822;50.124;8.678;2022-12-07T14:10:37;4.75;;;1.50;;
24715;SDS011;12822;50.124;8.678;2022-12-07T14:13:23;7.50;;;1.58;;
24715;SDS011;12822;50.124;8.678;2022-12-07T14:15:50;5.82;;;1.60;;
24715;SDS011;12822;50.124;8.678;2022-12-07T14:18:27;5.32;;;1.38;;
24715;SDS011;12822;50.124;8.678;2022-12-07T14:21:06;5.43;;;2.00;;
24715;SDS011;12822;50.124;8.678;2022-12-07T14:23:39;3.28;;;1.70;;
24715;SDS011;12822;50.124;8.678;2022-12-07T14:28:35;5.75;;;1.70;;
24715;SDS011;12822;50.124;8.678;2022-12-07T14:31:02;5.20;;;1.75;;
24715;SDS011;12822;50.124;8.678;2022-12-07T14:33:28;5.30;;;2.05;;
24715;SDS011;12822;50.124;8.678;2022-12-07T14:35:55;8.18;;;2.10;;
24715;SDS011;12822;50.124;8.678;2022-12-07T14:38:23;9.50;;;2.50;;
24715;SDS011;12822;50.124;8.678;2022-12-07T14:40:49;9.40;;;2.30;;
24715;SDS011;12822;50.124;8.678;2022-12-07T14:43:16;7.20;;;2.30;;
24715;SDS011;12822;50.124;8.678;2022-12-07T14:45:43;6.15;;;1.73;;
24715;SDS011;12822;50.124;8.678;2022-12-07T14:48:12;5.22;;;1.92;;
24715;SDS011;12822;50.124;8.678;2022-12-07T14:50:43;4.47;;;1.80;;
24715;SDS011;12822;50.124;8.678;2022-12-07T14:53:12;3.90;;;2.00;;
24715;SDS011;12822;50.124;8.678;2022-12-07T14:55:39;5.82;;;1.48;;
24715;SDS011;12822;50.124;8.678;2022-12-07T14:58:05;5.97;;;2.00;;
24715;SDS011;12822;50.124;8.678;2022-12-07T15:00:31;7.15;;;1.90;;
24715;SDS011;12822;50.124;8.678;2022-12-07T15:02:59;6.63;;;2.72;;
24715;SDS011;12822;50.124;8.678;2022-12-07T15:05:25;6.57;;;2.35;;
24715;SDS011;12822;50.124;8.678;2022-12-07T15:07:51;9.80;;;2.35;;
24715;SDS011;12822;50.124;8.678;2022-12-07T15:10:19;7.50;;;2.08;;
24715;SDS011;12822;50.124;8.678;2022-12-07T15:12:46;6.72;;;2.35;;
24715;SDS011;12822;50.124;8.678;2022-12-07T15:15:12;3.85;;;1.98;;
24715;SDS011;12822;50.124;8.678;2022-12-07T15:17:38;5.00;;;2.28;;
24715;SDS011;12822;50.124;8.678;2022-12-07T15:20:05;6.38;;;2.42;;
24715;SDS011;12822;50.124;8.678;2022-12-07T15:22:31;8.00;;;2.33;;
24715;SDS011;12822;50.124;8.678;2022-12-07T15:24:57;5.00;;;2.80;;
24715;SDS011;12822;50.124;8.678;2022-12-07T15:27:23;11.20;;;3.80;;
24715;SDS011;12822;50.124;8.678;2022-12-07T15:29:49;4.57;;;2.33;;
24715;SDS011;12822;50.124;8.678;2022-12-07T15:32:15;5.32;;;2.17;;
24715;SDS011;12822;50.124;8.678;2022-12-07T15:34:41;7.72;;;2.78;;
24715;SDS011;12822;50.124;8.678;2022-12-07T15:37:07;3.42;;;1.80;;
24715;SDS011;12822;50.124;8.678;2022-12-07T15:39:34;5.53;;;1.70;;
24715;SDS011;12822;50.124;8.678;2022-12-07T15:42:01;5.88;;;2.17;;
24715;SDS011;12822;50.124;8.678;2022-12-07T15:44:27;5.40;;;1.83;;
24715;SDS011;12822;50.124;8.678;2022-12-07T15:47:11;7.80;;;2.30;;
24715;SDS011;12822;50.124;8.678;2022-12-07T15:49:37;13.27;;;2.58;;
24715;SDS011;12822;50.124;8.678;2022-12-07T15:52:03;5.90;;;2.08;;
24715;SDS011;12822;50.124;8.678;2022-12-07T15:54:30;11.75;;;2.75;;
24715;SDS011;12822;50.124;8.678;2022-12-07T15:56:57;6.82;;;2.70;;
24715;SDS011;12822;50.124;8.678;2022-12-07T15:59:23;7.45;;;3.00;;
24715;SDS011;12822;50.124;8.678;2022-12-07T16:01:49;18.27;;;4.93;;
24715;SDS011;12822;50.124;8.678;2022-12-07T16:04:15;7.13;;;3.08;;
24715;SDS011;12822;50.124;8.678;2022-12-07T16:06:41;10.95;;;3.10;;
24715;SDS011;12822;50.124;8.678;2022-12-07T16:09:07;8.40;;;3.08;;
24715;SDS011;12822;50.124;8.678;2022-12-07T16:11:33;11.18;;;2.90;;
24715;SDS011;12822;50.124;8.678;2022-12-07T16:13:59;10.07;;;2.97;;
24715;SDS011;12822;50.124;8.678;2022-12-07T16:16:25;8.23;;;2.90;;
24715;SDS011;12822;50.124;8.678;2022-12-07T16:18:52;8.18;;;2.75;;
24715;SDS011;12822;50.124;8.678;2022-12-07T16:21:19;6.25;;;2.75;;
24715;SDS011;12822;50.124;8.678;2022-12-07T16:23:45;11.02;;;2.80;;
24715;SDS011;12822;50.124;8.678;2022-12-07T16:26:14;8.00;;;2.90;;
24715;SDS011;12822;50.124;8.678;2022-12-07T16:28:41;8.63;;;2.60;;
24715;SDS011;12822;50.124;8.678;2022-12-07T16:31:09;14.40;;;3.78;;
24715;SDS011;12822;50.124;8.678;2022-12-07T16:33:36;8.65;;;2.95;;
24715;SDS011;12822;50.124;8.678;2022-12-07T16:36:03;6.10;;;2.88;;